sensor_id;sensor_type;location;lat;lon;timestamp;temperature;humidity
11650;DHT22;5881;48.522;7.682;2023-01-15T00:01:34;11.00;99.90
11650;DHT22;5881;48.522;7.682;2023-01-15T00:04:00;11.10;99.90
11650;DHT22;5881;48.522;7.682;2023-01-15T00:06:28;11.10;99.90
11650;DHT22;5881;48.522;7.682;2023-01-15T00:08:54;11.10;99.90
11650;DHT22;5881;48.522;7.682;2023-01-15T00:11:21;11.10;99.90
11650;DHT22;5881;48.522;7.682;2023-01-15T00:13:47;11.10;99.90
11650;DHT22;5881;48.522;7.682;2023-01-15T00:16:21;11.10;99.90
11650;DHT22;5881;48.522;7.682;2023-01-15T00:18:51;11.10;99.90
11650;DHT22;5881;48.522;7.682;2023-01-15T00:21:18;11.20;99.90
11650;DHT22;5881;48.522;7.682;2023-01-15T00:23:44;11.10;99.90
11650;DHT22;5881;48.522;7.682;2023-01-15T00:26:30;11.10;99.90
11650;DHT22;5881;48.522;7.682;2023-01-15T00:29:15;11.10;99.90
11650;DHT22;5881;48.522;7.682;2023-01-15T00:31:54;11.10;99.90
11650;DHT22;5881;48.522;7.682;2023-01-15T00:34:20;11.20;99.90
11650;DHT22;5881;48.522;7.682;2023-01-15T00:36:46;11.10;99.90
11650;DHT22;5881;48.522;7.682;2023-01-15T00:39:12;11.10;99.90
11650;DHT22;5881;48.522;7.682;2023-01-15T00:41:37;11.10;99.90
11650;DHT22;5881;48.522;7.682;2023-01-15T00:44:03;11.10;99.90
11650;DHT22;5881;48.522;7.682;2023-01-15T00:46:29;10.90;99.90
11650;DHT22;5881;48.522;7.682;2023-01-15T00:48:54;10.90;99.90
11650;DHT22;5881;48.522;7.682;2023-01-15T00:51:20;10.90;99.90
11650;DHT22;5881;48.522;7.682;2023-01-15T00:53:46;10.90;99.90
11650;DHT22;5881;48.522;7.682;2023-01-15T00:56:11;10.90;99.90
11650;DHT22;5881;48.522;7.682;2023-01-15T00:58:37;10.80;99.90
11650;DHT22;5881;48.522;7.682;2023-01-15T01:01:03;10.90;99.90
11650;DHT22;5881;48.522;7.682;2023-01-15T01:03:28;10.80;99.90
11650;DHT22;5881;48.522;7.682;2023-01-15T01:06:01;11.00;99.90
11650;DHT22;5881;48.522;7.682;2023-01-15T01:08:28;11.00;99.90
11650;DHT22;5881;48.522;7.682;2023-01-15T01:11:08;11.00;99.90
11650;DHT22;5881;48.522;7.682;2023-01-15T01:13:34;10.90;99.90
11650;DHT22;5881;48.522;7.682;2023-01-15T01:16:00;10.90;99.90
11650;DHT22;5881;48.522;7.682;2023-01-15T01:18:26;10.90;99.90
11650;DHT22;5881;48.522;7.682;2023-01-15T01:20:52;11.10;99.90
11650;DHT22;5881;48.522;7.682;2023-01-15T01:23:18;11.00;99.90
11650;DHT22;5881;48.522;7.682;2023-01-15T01:25:44;11.00;99.90
11650;DHT22;5881;48.522;7.682;2023-01-15T01:28:10;10.90;99.90
11650;DHT22;5881;48.522;7.682;2023-01-15T01:30:37;11.00;99.90
11650;DHT22;5881;48.522;7.682;2023-01-15T01:33:03;10.90;99.90
11650;DHT22;5881;48.522;7.682;2023-01-15T01:35:28;10.90;99.90
11650;DHT22;5881;48.522;7.682;2023-01-15T01:37:54;11.00;99.90
11650;DHT22;5881;48.522;7.682;2023-01-15T01:40:19;11.00;99.90
11650;DHT22;5881;48.522;7.682;2023-01-15T01:42:45;11.00;99.90
11650;DHT22;5881;48.522;7.682;2023-01-15T01:45:27;11.10;99.90
11650;DHT22;5881;48.522;7.682;2023-01-15T01:47:56;11.10;99.90
11650;DHT22;5881;48.522;7.682;2023-01-15T01:50:24;11.10;99.90
11650;DHT22;5881;48.522;7.682;2023-01-15T01:52:55;11.10;99.90
11650;DHT22;5881;48.522;7.682;2023-01-15T01:55:23;11.10;99.90
11650;DHT22;5881;48.522;7.682;2023-01-15T01:57:50;11.10;99.90
11650;DHT22;5881;48.522;7.682;2023-01-15T02:00:17;11.20;99.90
11650;DHT22;5881;48.522;7.682;2023-01-15T02:02:46;11.10;99.90
11650;DHT22;5881;48.522;7.682;2023-01-15T02:05:15;11.20;99.90
11650;DHT22;5881;48.522;7.682;2023-01-15T02:07:43;11.20;99.90
11650;DHT22;5881;48.522;7.682;2023-01-15T02:10:15;11.20;99.90
11650;DHT22;5881;48.522;7.682;2023-01-15T02:13:07;11.20;99.90
11650;DHT22;5881;48.522;7.682;2023-01-15T02:15:35;11.10;99.90
11650;DHT22;5881;48.522;7.682;2023-01-15T02:18:28;11.10;99.90
11650;DHT22;5881;48.522;7.682;2023-01-15T02:21:22;11.30;99.90
11650;DHT22;5881;48.522;7.682;2023-01-15T02:24:11;11.40;99.90
11650;DHT22;5881;48.522;7.682;2023-01-15T02:29:55;11.20;99.90
11650;DHT22;5881;48.522;7.682;2023-01-15T02:32:38;11.20;99.90
11650;DHT22;5881;48.522;7.682;2023-01-15T02:35:15;11.20;99.90
11650;DHT22;5881;48.522;7.682;2023-01-15T02:37:47;11.30;99.90
11650;DHT22;5881;48.522;7.682;2023-01-15T02:40:17;11.30;99.90
11650;DHT22;5881;48.522;7.682;2023-01-15T02:42:46;11.30;99.90
11650;DHT22;5881;48.522;7.682;2023-01-15T02:45:16;11.30;99.90
11650;DHT22;5881;48.522;7.682;2023-01-15T02:47:45;11.40;99.90
11650;DHT22;5881;48.522;7.682;2023-01-15T02:50:15;11.40;99.90
11650;DHT22;5881;48.522;7.682;2023-01-15T02:52:48;11.40;99.90
11650;DHT22;5881;48.522;7.682;2023-01-15T02:55:26;11.40;99.90
11650;DHT22;5881;48.522;7.682;2023-01-15T02:57:56;11.50;99.90
11650;DHT22;5881;48.522;7.682;2023-01-15T03:00:25;11.60;99.90
11650;DHT22;5881;48.522;7.682;2023-01-15T03:03:13;11.60;99.90
11650;DHT22;5881;48.522;7.682;2023-01-15T03:06:10;11.60;99.90
11650;DHT22;5881;48.522;7.682;2023-01-15T03:08:37;11.50;99.90
11650;DHT22;5881;48.522;7.682;2023-01-15T03:11:12;11.40;99.90
11650;DHT22;5881;48.522;7.682;2023-01-15T03:16:44;11.50;99.90
11650;DHT22;5881;48.522;7.682;2023-01-15T03:24:28;11.50;99.90
11650;DHT22;5881;48.522;7.682;2023-01-15T03:26:56;12.00;99.90
11650;DHT22;5881;48.522;7.682;2023-01-15T03:29:25;11.80;99.90
11650;DHT22;5881;48.522;7.682;2023-01-15T03:31:52;11.90;99.90
11650;DHT22;5881;48.522;7.682;2023-01-15T03:34:19;11.80;99.90
11650;DHT22;5881;48.522;7.682;2023-01-15T03:36:44;11.60;99.90
11650;DHT22;5881;48.522;7.682;2023-01-15T03:39:10;11.50;99.90
11650;DHT22;5881;48.522;7.682;2023-01-15T03:49:58;11.60;99.90
11650;DHT22;5881;48.522;7.682;2023-01-15T03:52:30;11.60;99.90
11650;DHT22;5881;48.522;7.682;2023-01-15T03:55:17;11.60;99.90
11650;DHT22;5881;48.522;7.682;2023-01-15T04:01:02;11.50;99.90
11650;DHT22;5881;48.522;7.682;2023-01-15T04:03:29;11.60;99.90
11650;DHT22;5881;48.522;7.682;2023-01-15T04:05:59;11.70;99.90
11650;DHT22;5881;48.522;7.682;2023-01-15T04:08:27;11.60;99.90
11650;DHT22;5881;48.522;7.682;2023-01-15T04:11:00;10.60;99.90
11650;DHT22;5881;48.522;7.682;2023-01-15T04:13:26;9.40;99.90
11650;DHT22;5881;48.522;7.682;2023-01-15T04:15:53;8.80;99.90
11650;DHT22;5881;48.522;7.682;2023-01-15T04:18:19;8.10;99.90
11650;DHT22;5881;48.522;7.682;2023-01-15T04:20:45;8.00;99.90
11650;DHT22;5881;48.522;7.682;2023-01-15T04:23:11;8.00;99.90
11650;DHT22;5881;48.522;7.682;2023-01-15T04:25:37;8.00;99.90
11650;DHT22;5881;48.522;7.682;2023-01-15T04:28:03;8.00;99.90
11650;DHT22;5881;48.522;7.682;2023-01-15T04:30:29;8.00;99.90
11650;DHT22;5881;48.522;7.682;2023-01-15T04:32:55;7.90;99.90
11650;DHT22;5881;48.522;7.682;2023-01-15T04:35:21;7.90;99.90
11650;DHT22;5881;48.522;7.682;2023-01-15T04:37:46;7.90;99.90
11650;DHT22;5881;48.522;7.682;2023-01-15T04:40:12;7.90;99.90
11650;DHT22;5881;48.522;7.682;2023-01-15T04:42:56;7.90;99.90
11650;DHT22;5881;48.522;7.682;2023-01-15T04:45:43;7.80;99.90
11650;DHT22;5881;48.522;7.682;2023-01-15T04:48:08;7.80;99.90
11650;DHT22;5881;48.522;7.682;2023-01-15T04:50:34;7.80;99.90
11650;DHT22;5881;48.522;7.682;2023-01-15T04:53:00;7.80;99.90
11650;DHT22;5881;48.522;7.682;2023-01-15T04:55:25;7.80;99.90
11650;DHT22;5881;48.522;7.682;2023-01-15T04:57:51;7.70;99.90
11650;DHT22;5881;48.522;7.682;2023-01-15T05:00:17;7.80;99.90
11650;DHT22;5881;48.522;7.682;2023-01-15T05:02:43;7.80;99.90
11650;DHT22;5881;48.522;7.682;2023-01-15T05:05:08;7.80;99.90
11650;DHT22;5881;48.522;7.682;2023-01-15T05:07:34;7.70;99.90
11650;DHT22;5881;48.522;7.682;2023-01-15T05:10:00;7.80;99.90
11650;DHT22;5881;48.522;7.682;2023-01-15T05:12:25;7.70;99.90
11650;DHT22;5881;48.522;7.682;2023-01-15T05:14:51;7.70;99.90
11650;DHT22;5881;48.522;7.682;2023-01-15T05:17:17;7.70;99.90
11650;DHT22;5881;48.522;7.682;2023-01-15T05:19:43;7.70;99.90
11650;DHT22;5881;48.522;7.682;2023-01-15T05:22:08;7.60;99.90
11650;DHT22;5881;48.522;7.682;2023-01-15T05:24:34;7.60;99.90
11650;DHT22;5881;48.522;7.682;2023-01-15T05:27:00;7.60;99.90
11650;DHT22;5881;48.522;7.682;2023-01-15T05:29:27;7.60;99.90
11650;DHT22;5881;48.522;7.682;2023-01-15T05:31:52;7.60;99.90
11650;DHT22;5881;48.522;7.682;2023-01-15T05:34:18;7.50;99.90
11650;DHT22;5881;48.522;7.682;2023-01-15T05:36:43;7.50;99.90
11650;DHT22;5881;48.522;7.682;2023-01-15T05:39:09;7.40;99.90
11650;DHT22;5881;48.522;7.682;2023-01-15T05:41:35;7.40;99.90
11650;DHT22;5881;48.522;7.682;2023-01-15T05:44:27;7.40;99.90
11650;DHT22;5881;48.522;7.682;2023-01-15T05:46:56;7.40;99.90
11650;DHT22;5881;48.522;7.682;2023-01-15T05:49:23;7.30;99.90
11650;DHT22;5881;48.522;7.682;2023-01-15T05:51:50;7.20;99.90
11650;DHT22;5881;48.522;7.682;2023-01-15T05:54:25;7.20;99.90
11650;DHT22;5881;48.522;7.682;2023-01-15T05:56:51;7.20;99.90
11650;DHT22;5881;48.522;7.682;2023-01-15T05:59:19;7.20;99.90
11650;DHT22;5881;48.522;7.682;2023-01-15T06:01:45;7.20;99.90
11650;DHT22;5881;48.522;7.682;2023-01-15T06:04:11;7.20;99.90
11650;DHT22;5881;48.522;7.682;2023-01-15T06:06:42;7.20;99.90
11650;DHT22;5881;48.522;7.682;2023-01-15T06:09:08;7.20;99.90
11650;DHT22;5881;48.522;7.682;2023-01-15T06:11:34;7.10;99.90
11650;DHT22;5881;48.522;7.682;2023-01-15T06:14:00;7.10;99.90
11650;DHT22;5881;48.522;7.682;2023-01-15T06:16:26;7.00;99.90
11650;DHT22;5881;48.522;7.682;2023-01-15T06:18:51;7.10;99.90
11650;DHT22;5881;48.522;7.682;2023-01-15T06:21:17;7.10;99.90
11650;DHT22;5881;48.522;7.682;2023-01-15T06:23:43;7.10;99.90
11650;DHT22;5881;48.522;7.682;2023-01-15T06:26:15;7.00;99.90
11650;DHT22;5881;48.522;7.682;2023-01-15T06:28:41;7.00;99.90
11650;DHT22;5881;48.522;7.682;2023-01-15T06:31:10;7.10;99.90
11650;DHT22;5881;48.522;7.682;2023-01-15T06:33:35;7.00;99.90
11650;DHT22;5881;48.522;7.682;2023-01-15T06:36:05;7.00;99.90
11650;DHT22;5881;48.522;7.682;2023-01-15T06:38:32;7.10;99.90
11650;DHT22;5881;48.522;7.682;2023-01-15T06:41:01;7.10;99.90
11650;DHT22;5881;48.522;7.682;2023-01-15T06:43:27;7.00;99.90
11650;DHT22;5881;48.522;7.682;2023-01-15T06:46:12;7.00;99.90
11650;DHT22;5881;48.522;7.682;2023-01-15T06:48:57;7.00;99.90
11650;DHT22;5881;48.522;7.682;2023-01-15T06:51:23;7.00;99.90
11650;DHT22;5881;48.522;7.682;2023-01-15T06:53:49;7.00;99.90
11650;DHT22;5881;48.522;7.682;2023-01-15T06:56:15;7.00;99.90
11650;DHT22;5881;48.522;7.682;2023-01-15T06:58:41;7.00;99.90
11650;DHT22;5881;48.522;7.682;2023-01-15T07:01:13;7.00;99.90
11650;DHT22;5881;48.522;7.682;2023-01-15T07:03:39;7.00;99.90
11650;DHT22;5881;48.522;7.682;2023-01-15T07:06:10;7.00;99.90
11650;DHT22;5881;48.522;7.682;2023-01-15T07:08:37;7.00;99.90
11650;DHT22;5881;48.522;7.682;2023-01-15T07:11:04;7.00;99.90
11650;DHT22;5881;48.522;7.682;2023-01-15T07:13:30;7.00;99.90
11650;DHT22;5881;48.522;7.682;2023-01-15T07:15:58;7.00;99.90
11650;DHT22;5881;48.522;7.682;2023-01-15T07:18:24;7.00;99.90
11650;DHT22;5881;48.522;7.682;2023-01-15T07:20:54;7.00;99.90
11650;DHT22;5881;48.522;7.682;2023-01-15T07:23:21;7.00;99.90
11650;DHT22;5881;48.522;7.682;2023-01-15T07:25:46;6.90;99.90
11650;DHT22;5881;48.522;7.682;2023-01-15T07:28:12;6.90;99.90
11650;DHT22;5881;48.522;7.682;2023-01-15T07:30:38;6.90;99.90
11650;DHT22;5881;48.522;7.682;2023-01-15T07:33:03;6.90;99.90
11650;DHT22;5881;48.522;7.682;2023-01-15T07:35:29;6.80;99.90
11650;DHT22;5881;48.522;7.682;2023-01-15T07:37:55;6.80;99.90
11650;DHT22;5881;48.522;7.682;2023-01-15T07:40:21;6.80;99.90
11650;DHT22;5881;48.522;7.682;2023-01-15T07:42:46;6.70;99.90
11650;DHT22;5881;48.522;7.682;2023-01-15T07:45:30;6.70;99.90
11650;DHT22;5881;48.522;7.682;2023-01-15T07:48:14;6.70;99.90
11650;DHT22;5881;48.522;7.682;2023-01-15T07:50:58;6.50;99.90
11650;DHT22;5881;48.522;7.682;2023-01-15T07:53:24;6.60;99.90
11650;DHT22;5881;48.522;7.682;2023-01-15T07:55:49;6.50;99.90
11650;DHT22;5881;48.522;7.682;2023-01-15T07:58:15;6.50;99.90
11650;DHT22;5881;48.522;7.682;2023-01-15T08:00:41;6.50;99.90
11650;DHT22;5881;48.522;7.682;2023-01-15T08:03:06;6.50;99.90
11650;DHT22;5881;48.522;7.682;2023-01-15T08:05:33;6.60;99.90
11650;DHT22;5881;48.522;7.682;2023-01-15T08:07:59;6.50;99.90
11650;DHT22;5881;48.522;7.682;2023-01-15T08:10:24;6.50;99.90
11650;DHT22;5881;48.522;7.682;2023-01-15T08:12:50;6.50;99.90
11650;DHT22;5881;48.522;7.682;2023-01-15T08:15:38;6.50;99.90
11650;DHT22;5881;48.522;7.682;2023-01-15T08:18:04;6.50;99.90
11650;DHT22;5881;48.522;7.682;2023-01-15T08:20:30;6.50;99.90
11650;DHT22;5881;48.522;7.682;2023-01-15T08:22:55;6.70;99.90
11650;DHT22;5881;48.522;7.682;2023-01-15T08:25:23;6.60;99.90
11650;DHT22;5881;48.522;7.682;2023-01-15T08:27:49;6.50;99.90
11650;DHT22;5881;48.522;7.682;2023-01-15T08:30:18;6.60;99.90
11650;DHT22;5881;48.522;7.682;2023-01-15T08:32:44;6.60;99.90
11650;DHT22;5881;48.522;7.682;2023-01-15T08:35:10;6.60;99.90
11650;DHT22;5881;48.522;7.682;2023-01-15T08:37:37;6.60;99.90
11650;DHT22;5881;48.522;7.682;2023-01-15T08:40:04;6.60;99.90
11650;DHT22;5881;48.522;7.682;2023-01-15T08:42:30;6.60;99.90
11650;DHT22;5881;48.522;7.682;2023-01-15T08:44:55;6.60;99.90
11650;DHT22;5881;48.522;7.682;2023-01-15T08:47:21;6.60;99.90
11650;DHT22;5881;48.522;7.682;2023-01-15T08:49:47;6.60;99.90
11650;DHT22;5881;48.522;7.682;2023-01-15T08:52:13;6.70;99.90
11650;DHT22;5881;48.522;7.682;2023-01-15T08:54:39;6.60;99.90
11650;DHT22;5881;48.522;7.682;2023-01-15T08:57:05;6.60;99.90
11650;DHT22;5881;48.522;7.682;2023-01-15T08:59:30;6.60;99.90
11650;DHT22;5881;48.522;7.682;2023-01-15T09:01:56;6.60;99.90
11650;DHT22;5881;48.522;7.682;2023-01-15T09:04:22;6.60;99.90
11650;DHT22;5881;48.522;7.682;2023-01-15T09:06:48;6.50;99.90
11650;DHT22;5881;48.522;7.682;2023-01-15T09:09:14;6.60;99.90
11650;DHT22;5881;48.522;7.682;2023-01-15T09:11:41;6.60;99.90
11650;DHT22;5881;48.522;7.682;2023-01-15T09:14:10;6.60;99.90
11650;DHT22;5881;48.522;7.682;2023-01-15T09:16:37;6.60;99.90
11650;DHT22;5881;48.522;7.682;2023-01-15T09:19:04;6.50;99.90
11650;DHT22;5881;48.522;7.682;2023-01-15T09:21:30;6.50;99.90
11650;DHT22;5881;48.522;7.682;2023-01-15T09:23:55;6.50;99.90
11650;DHT22;5881;48.522;7.682;2023-01-15T09:26:32;6.40;99.90
11650;DHT22;5881;48.522;7.682;2023-01-15T09:28:59;6.50;99.90
11650;DHT22;5881;48.522;7.682;2023-01-15T09:31:25;6.40;99.90
11650;DHT22;5881;48.522;7.682;2023-01-15T09:33:50;6.40;99.90
11650;DHT22;5881;48.522;7.682;2023-01-15T09:36:19;6.50;99.90
11650;DHT22;5881;48.522;7.682;2023-01-15T09:38:48;6.30;99.90
11650;DHT22;5881;48.522;7.682;2023-01-15T09:41:14;6.30;99.90
11650;DHT22;5881;48.522;7.682;2023-01-15T09:52:04;6.10;99.90
11650;DHT22;5881;48.522;7.682;2023-01-15T09:57:06;6.30;99.90
11650;DHT22;5881;48.522;7.682;2023-01-15T09:59:36;6.20;99.90
11650;DHT22;5881;48.522;7.682;2023-01-15T10:04:45;6.20;99.90
11650;DHT22;5881;48.522;7.682;2023-01-15T10:07:32;6.20;99.90
11650;DHT22;5881;48.522;7.682;2023-01-15T10:10:04;6.20;99.90
11650;DHT22;5881;48.522;7.682;2023-01-15T10:12:31;6.10;99.90
11650;DHT22;5881;48.522;7.682;2023-01-15T10:15:13;6.20;99.90
11650;DHT22;5881;48.522;7.682;2023-01-15T10:17:47;6.10;99.90
11650;DHT22;5881;48.522;7.682;2023-01-15T10:20:18;6.20;99.90
11650;DHT22;5881;48.522;7.682;2023-01-15T10:25:52;6.20;99.90
11650;DHT22;5881;48.522;7.682;2023-01-15T10:28:25;6.10;99.90
11650;DHT22;5881;48.522;7.682;2023-01-15T10:30:55;6.00;99.90
11650;DHT22;5881;48.522;7.682;2023-01-15T10:36:37;6.00;99.90
11650;DHT22;5881;48.522;7.682;2023-01-15T10:39:13;5.60;99.90
11650;DHT22;5881;48.522;7.682;2023-01-15T10:41:51;5.50;99.90
11650;DHT22;5881;48.522;7.682;2023-01-15T10:47:02;5.50;99.90
11650;DHT22;5881;48.522;7.682;2023-01-15T10:49:29;5.60;99.90
11650;DHT22;5881;48.522;7.682;2023-01-15T10:52:33;5.70;99.90
11650;DHT22;5881;48.522;7.682;2023-01-15T10:55:19;5.80;99.90
11650;DHT22;5881;48.522;7.682;2023-01-15T10:57:52;5.80;99.90
11650;DHT22;5881;48.522;7.682;2023-01-15T11:00:19;5.80;99.90
11650;DHT22;5881;48.522;7.682;2023-01-15T11:05:40;5.90;99.90
11650;DHT22;5881;48.522;7.682;2023-01-15T11:08:17;5.80;99.90
11650;DHT22;5881;48.522;7.682;2023-01-15T11:10:45;5.80;99.90
11650;DHT22;5881;48.522;7.682;2023-01-15T11:13:22;5.80;99.90
11650;DHT22;5881;48.522;7.682;2023-01-15T11:16:17;5.70;99.90
11650;DHT22;5881;48.522;7.682;2023-01-15T11:19:05;5.70;99.90
11650;DHT22;5881;48.522;7.682;2023-01-15T11:21:51;5.80;99.90
11650;DHT22;5881;48.522;7.682;2023-01-15T11:24:17;5.70;99.90
11650;DHT22;5881;48.522;7.682;2023-01-15T11:26:49;5.80;99.90
11650;DHT22;5881;48.522;7.682;2023-01-15T11:29:35;5.80;99.90
11650;DHT22;5881;48.522;7.682;2023-01-15T11:32:02;5.80;99.90
11650;DHT22;5881;48.522;7.682;2023-01-15T11:34:28;5.70;99.90
11650;DHT22;5881;48.522;7.682;2023-01-15T11:37:05;5.60;99.90
11650;DHT22;5881;48.522;7.682;2023-01-15T11:39:31;5.60;99.90
11650;DHT22;5881;48.522;7.682;2023-01-15T11:42:02;5.60;99.90
11650;DHT22;5881;48.522;7.682;2023-01-15T11:44:54;5.60;99.90
11650;DHT22;5881;48.522;7.682;2023-01-15T11:47:38;5.50;99.90
11650;DHT22;5881;48.522;7.682;2023-01-15T11:50:32;5.50;99.90
11650;DHT22;5881;48.522;7.682;2023-01-15T11:53:16;5.40;99.90
11650;DHT22;5881;48.522;7.682;2023-01-15T11:56:03;5.40;99.90
11650;DHT22;5881;48.522;7.682;2023-01-15T11:58:49;5.30;99.90
11650;DHT22;5881;48.522;7.682;2023-01-15T12:01:28;5.40;99.90
11650;DHT22;5881;48.522;7.682;2023-01-15T12:03:57;5.40;99.90
11650;DHT22;5881;48.522;7.682;2023-01-15T12:06:23;5.40;99.90
11650;DHT22;5881;48.522;7.682;2023-01-15T12:09:13;5.50;99.90
11650;DHT22;5881;48.522;7.682;2023-01-15T12:12:02;5.60;99.90
11650;DHT22;5881;48.522;7.682;2023-01-15T12:15:00;5.60;99.90
11650;DHT22;5881;48.522;7.682;2023-01-15T12:28:31;6.20;99.90
11650;DHT22;5881;48.522;7.682;2023-01-15T12:31:10;6.30;99.90
11650;DHT22;5881;48.522;7.682;2023-01-15T12:39:04;6.40;99.90
11650;DHT22;5881;48.522;7.682;2023-01-15T12:41:35;6.60;99.90
11650;DHT22;5881;48.522;7.682;2023-01-15T12:45:03;6.60;99.90
11650;DHT22;5881;48.522;7.682;2023-01-15T12:47:34;6.60;99.90
11650;DHT22;5881;48.522;7.682;2023-01-15T12:50:14;6.50;99.90
11650;DHT22;5881;48.522;7.682;2023-01-15T12:52:48;6.50;99.90
11650;DHT22;5881;48.522;7.682;2023-01-15T12:55:19;6.70;99.90
11650;DHT22;5881;48.522;7.682;2023-01-15T12:57:50;6.60;99.90
11650;DHT22;5881;48.522;7.682;2023-01-15T13:00:23;6.60;99.90
11650;DHT22;5881;48.522;7.682;2023-01-15T13:05:40;6.80;99.90
11650;DHT22;5881;48.522;7.682;2023-01-15T13:08:21;6.80;99.90
11650;DHT22;5881;48.522;7.682;2023-01-15T13:10:49;6.80;99.90
11650;DHT22;5881;48.522;7.682;2023-01-15T13:13:19;6.90;99.90
11650;DHT22;5881;48.522;7.682;2023-01-15T13:16:09;6.90;99.90
11650;DHT22;5881;48.522;7.682;2023-01-15T13:19:00;7.00;99.90
11650;DHT22;5881;48.522;7.682;2023-01-15T13:21:32;6.90;99.90
11650;DHT22;5881;48.522;7.682;2023-01-15T13:24:30;6.80;99.90
11650;DHT22;5881;48.522;7.682;2023-01-15T13:29:55;6.80;99.90
11650;DHT22;5881;48.522;7.682;2023-01-15T13:32:28;6.80;99.90
11650;DHT22;5881;48.522;7.682;2023-01-15T13:37:28;7.10;99.90
11650;DHT22;5881;48.522;7.682;2023-01-15T13:39:59;7.20;99.90
11650;DHT22;5881;48.522;7.682;2023-01-15T13:42:26;7.30;99.90
11650;DHT22;5881;48.522;7.682;2023-01-15T13:45:06;7.20;99.90
11650;DHT22;5881;48.522;7.682;2023-01-15T13:47:48;7.20;99.90
11650;DHT22;5881;48.522;7.682;2023-01-15T13:50:18;7.20;99.90
11650;DHT22;5881;48.522;7.682;2023-01-15T13:52:47;7.20;99.90
11650;DHT22;5881;48.522;7.682;2023-01-15T13:55:30;7.20;99.90
11650;DHT22;5881;48.522;7.682;2023-01-15T13:57:56;7.30;99.90
11650;DHT22;5881;48.522;7.682;2023-01-15T14:00:36;7.50;99.90
11650;DHT22;5881;48.522;7.682;2023-01-15T14:03:29;7.50;99.90
11650;DHT22;5881;48.522;7.682;2023-01-15T14:06:01;7.50;99.90
11650;DHT22;5881;48.522;7.682;2023-01-15T14:08:42;7.40;99.90
11650;DHT22;5881;48.522;7.682;2023-01-15T14:11:29;7.30;99.90
11650;DHT22;5881;48.522;7.682;2023-01-15T14:33:46;6.80;99.90
11650;DHT22;5881;48.522;7.682;2023-01-15T14:36:28;6.80;99.90
11650;DHT22;5881;48.522;7.682;2023-01-15T14:38:58;6.80;99.90
11650;DHT22;5881;48.522;7.682;2023-01-15T14:41:26;6.80;99.90
11650;DHT22;5881;48.522;7.682;2023-01-15T14:43:53;6.80;99.90
11650;DHT22;5881;48.522;7.682;2023-01-15T14:46:23;6.80;99.90
11650;DHT22;5881;48.522;7.682;2023-01-15T14:48:50;7.00;99.90
11650;DHT22;5881;48.522;7.682;2023-01-15T14:53:52;7.00;99.90
11650;DHT22;5881;48.522;7.682;2023-01-15T14:56:31;7.00;99.90
11650;DHT22;5881;48.522;7.682;2023-01-15T14:59:19;6.90;99.90
11650;DHT22;5881;48.522;7.682;2023-01-15T15:02:04;6.90;99.90
11650;DHT22;5881;48.522;7.682;2023-01-15T15:04:49;7.00;99.90
11650;DHT22;5881;48.522;7.682;2023-01-15T15:07:21;7.00;99.90
11650;DHT22;5881;48.522;7.682;2023-01-15T15:13:07;7.00;99.90
11650;DHT22;5881;48.522;7.682;2023-01-15T15:18:44;7.00;99.90
11650;DHT22;5881;48.522;7.682;2023-01-15T15:21:21;7.00;99.90
11650;DHT22;5881;48.522;7.682;2023-01-15T15:23:57;7.00;99.90
11650;DHT22;5881;48.522;7.682;2023-01-15T15:26:31;7.00;99.90
11650;DHT22;5881;48.522;7.682;2023-01-15T15:29:09;6.80;99.90
11650;DHT22;5881;48.522;7.682;2023-01-15T15:31:49;6.80;99.90
11650;DHT22;5881;48.522;7.682;2023-01-15T15:34:29;6.80;99.90
11650;DHT22;5881;48.522;7.682;2023-01-15T15:37:13;6.60;99.90
11650;DHT22;5881;48.522;7.682;2023-01-15T15:39:51;6.50;99.90
11650;DHT22;5881;48.522;7.682;2023-01-15T15:42:52;6.40;99.90
11650;DHT22;5881;48.522;7.682;2023-01-15T15:45:55;6.40;99.90
11650;DHT22;5881;48.522;7.682;2023-01-15T15:48:40;6.30;99.90
11650;DHT22;5881;48.522;7.682;2023-01-15T15:59:44;6.10;99.90
11650;DHT22;5881;48.522;7.682;2023-01-15T16:02:33;6.00;99.90
11650;DHT22;5881;48.522;7.682;2023-01-15T16:07:45;6.00;99.90
11650;DHT22;5881;48.522;7.682;2023-01-15T16:10:31;6.00;99.90
11650;DHT22;5881;48.522;7.682;2023-01-15T16:13:05;6.00;99.90
11650;DHT22;5881;48.522;7.682;2023-01-15T16:15:41;6.00;99.90
11650;DHT22;5881;48.522;7.682;2023-01-15T16:18:19;6.10;99.90
11650;DHT22;5881;48.522;7.682;2023-01-15T16:20:47;6.10;99.90
11650;DHT22;5881;48.522;7.682;2023-01-15T16:23:24;6.00;99.90
11650;DHT22;5881;48.522;7.682;2023-01-15T16:26:20;5.90;99.90
11650;DHT22;5881;48.522;7.682;2023-01-15T16:28:53;5.80;99.90
11650;DHT22;5881;48.522;7.682;2023-01-15T16:31:20;5.70;99.90
11650;DHT22;5881;48.522;7.682;2023-01-15T16:33:55;5.70;99.90
11650;DHT22;5881;48.522;7.682;2023-01-15T16:36:23;5.50;99.90
11650;DHT22;5881;48.522;7.682;2023-01-15T16:38:50;5.50;99.90
11650;DHT22;5881;48.522;7.682;2023-01-15T16:41:39;5.50;99.90
11650;DHT22;5881;48.522;7.682;2023-01-15T16:44:07;5.50;99.90
11650;DHT22;5881;48.522;7.682;2023-01-15T16:46:44;5.50;99.90
11650;DHT22;5881;48.522;7.682;2023-01-15T16:49:29;5.60;99.90
11650;DHT22;5881;48.522;7.682;2023-01-15T16:51:57;5.40;99.90
11650;DHT22;5881;48.522;7.682;2023-01-15T17:02:03;5.50;99.90
11650;DHT22;5881;48.522;7.682;2023-01-15T17:04:32;5.50;99.90
11650;DHT22;5881;48.522;7.682;2023-01-15T17:09:25;5.50;99.90
11650;DHT22;5881;48.522;7.682;2023-01-15T17:11:52;5.40;99.90
11650;DHT22;5881;48.522;7.682;2023-01-15T17:14:26;5.30;99.90
11650;DHT22;5881;48.522;7.682;2023-01-15T17:17:14;5.30;99.90
11650;DHT22;5881;48.522;7.682;2023-01-15T17:19:40;5.20;99.90
11650;DHT22;5881;48.522;7.682;2023-01-15T17:22:27;5.20;99.90
11650;DHT22;5881;48.522;7.682;2023-01-15T17:24:55;5.20;99.90
11650;DHT22;5881;48.522;7.682;2023-01-15T17:27:21;5.10;99.90
11650;DHT22;5881;48.522;7.682;2023-01-15T17:29:47;5.10;99.90
11650;DHT22;5881;48.522;7.682;2023-01-15T17:32:27;5.20;99.90
11650;DHT22;5881;48.522;7.682;2023-01-15T17:34:55;4.90;99.90
11650;DHT22;5881;48.522;7.682;2023-01-15T17:37:20;5.00;99.90
11650;DHT22;5881;48.522;7.682;2023-01-15T17:39:46;4.80;99.90
11650;DHT22;5881;48.522;7.682;2023-01-15T17:42:14;5.00;99.90
11650;DHT22;5881;48.522;7.682;2023-01-15T17:44:40;5.00;99.90
11650;DHT22;5881;48.522;7.682;2023-01-15T17:47:06;5.00;99.90
11650;DHT22;5881;48.522;7.682;2023-01-15T17:49:32;5.00;99.90
11650;DHT22;5881;48.522;7.682;2023-01-15T17:51:58;4.90;99.90
11650;DHT22;5881;48.522;7.682;2023-01-15T17:54:24;5.00;99.90
11650;DHT22;5881;48.522;7.682;2023-01-15T17:57:08;5.00;99.90
11650;DHT22;5881;48.522;7.682;2023-01-15T17:59:52;5.00;99.90
11650;DHT22;5881;48.522;7.682;2023-01-15T18:02:37;5.00;99.90
11650;DHT22;5881;48.522;7.682;2023-01-15T18:05:21;5.00;99.90
11650;DHT22;5881;48.522;7.682;2023-01-15T18:07:57;5.00;99.90
11650;DHT22;5881;48.522;7.682;2023-01-15T18:10:24;5.10;99.90
11650;DHT22;5881;48.522;7.682;2023-01-15T18:12:50;5.00;99.90
11650;DHT22;5881;48.522;7.682;2023-01-15T18:15:16;5.00;99.90
11650;DHT22;5881;48.522;7.682;2023-01-15T18:17:42;5.00;99.90
11650;DHT22;5881;48.522;7.682;2023-01-15T18:20:09;5.10;99.90
11650;DHT22;5881;48.522;7.682;2023-01-15T18:22:34;5.10;99.90
11650;DHT22;5881;48.522;7.682;2023-01-15T18:25:00;5.10;99.90
11650;DHT22;5881;48.522;7.682;2023-01-15T18:27:26;5.10;99.90
11650;DHT22;5881;48.522;7.682;2023-01-15T18:29:55;5.20;99.90